Time;durP1;ratioP1;P1;durP2;ratioP2;P2;SDS_P1;SDS_P2;PMS_P1;PMS_P2;Temp;Humidity;BMP_temperature;BMP_pressure;BME280_temperature;BME280_humidity;BME280_pressure;Samples;Min_cycle;Max_cycle;Signal;HPM_P1;HPM_P2
2022/06/12 00:01:02;;;;;;;13.88;4.07;;;;;;;;;;5053728;28;20255;-66
2022/06/12 00:03:28;;;;;;;5.75;3.42;;;;;;;;;;5053755;28;20183;-66
2022/06/12 00:05:56;;;;;;;7.88;3.75;;;;;;;;;;5053384;28;20612;-66
2022/06/12 00:08:22;;;;;;;10.60;3.90;;;;;;;;;;5053605;28;20231;-66
2022/06/12 00:10:50;;;;;;;7.75;3.83;;;;;;;;;;5053612;28;20603;-66
2022/06/12 00:13:19;;;;;;;10.10;4.07;;;;;;;;;;5053694;28;20179;-66
2022/06/12 00:15:44;;;;;;;11.65;4.22;;;;;;;;;;5053377;28;20168;-66
2022/06/12 00:18:11;;;;;;;8.68;4.00;;;;;;;;;;5053788;28;20512;-66
2022/06/12 00:20:37;;;;;;;11.05;3.75;;;;;;;;;;5053208;28;20263;-66
2022/06/12 00:23:06;;;;;;;7.90;3.97;;;;;;;;;;5053651;28;20192;-66
2022/06/12 00:25:32;;;;;;;10.30;4.25;;;;;;;;;;5053525;28;20192;-66
2022/06/12 00:27:58;;;;;;;9.60;4.72;;;;;;;;;;5053458;28;20245;-66
2022/06/12 00:30:25;;;;;;;7.03;3.30;;;;;;;;;;5053175;28;20157;-66
2022/06/12 00:32:52;;;;;;;8.82;3.75;;;;;;;;;;5053141;28;20160;-66
2022/06/12 00:35:20;;;;;;;12.82;3.88;;;;;;;;;;5053253;28;20217;-66
2022/06/12 00:37:46;;;;;;;7.18;3.22;;;;;;;;;;5053080;28;20218;-66
2022/06/12 00:40:13;;;;;;;8.45;2.75;;;;;;;;;;5055336;28;20261;-66
2022/06/12 00:42:42;;;;;;;8.15;3.00;;;;;;;;;;5057847;28;20314;-66
2022/06/12 00:45:28;;;;;;;7.57;3.03;;;;;;;;;;5057327;28;20251;-66
2022/06/12 00:47:55;;;;;;;8.15;3.47;;;;;;;;;;5057029;28;20196;-66
2022/06/12 00:50:21;;;;;;;6.25;3.40;;;;;;;;;;5056877;28;20557;-67
2022/06/12 00:52:49;;;;;;;5.72;3.15;;;;;;;;;;5057265;28;20200;-66
2022/06/12 00:55:15;;;;;;;7.90;2.85;;;;;;;;;;5056941;28;20165;-67
2022/06/12 00:57:41;;;;;;;7.00;2.90;;;;;;;;;;5056932;28;20164;-67
2022/06/12 01:00:13;;;;;;;8.20;2.80;;;;;;;;;;5056761;28;20231;-67
2022/06/12 01:02:39;;;;;;;8.48;2.53;;;;;;;;;;5055733;28;20165;-67
2022/06/12 01:07:55;;;;;;;7.88;2.80;;;;;;;;;;5056674;28;20199;-67
2022/06/12 01:10:23;;;;;;;6.45;2.65;;;;;;;;;;5056568;28;20608;-67
2022/06/12 01:12:58;;;;;;;4.45;2.38;;;;;;;;;;5056553;28;20593;-67
2022/06/12 01:15:27;;;;;;;6.35;2.28;;;;;;;;;;5056439;28;20168;-67
2022/06/12 01:17:54;;;;;;;5.45;2.72;;;;;;;;;;5056797;28;20169;-67
2022/06/12 01:20:24;;;;;;;7.07;2.60;;;;;;;;;;5056446;28;20223;-67
2022/06/12 01:22:53;;;;;;;8.13;2.72;;;;;;;;;;5056353;28;20600;-67
2022/06/12 01:25:36;;;;;;;8.27;2.63;;;;;;;;;;5056431;28;20536;-66
2022/06/12 01:28:09;;;;;;;7.35;2.38;;;;;;;;;;5056301;28;20181;-67
2022/06/12 01:30:43;;;;;;;9.25;2.33;;;;;;;;;;5056124;28;20169;-67
2022/06/12 01:33:09;;;;;;;8.10;2.53;;;;;;;;;;5056526;28;20454;-67
2022/06/12 01:35:38;;;;;;;6.55;2.42;;;;;;;;;;5056114;28;20226;-67
2022/06/12 01:38:25;;;;;;;6.38;2.60;;;;;;;;;;5056384;28;20243;-67
2022/06/12 01:40:59;;;;;;;5.57;2.45;;;;;;;;;;5056067;28;20235;-67
2022/06/12 01:43:35;;;;;;;7.45;2.72;;;;;;;;;;5056072;28;20252;-66
2022/06/12 01:46:04;;;;;;;5.93;2.28;;;;;;;;;;5056184;28;20239;-67
2022/06/12 01:48:51;;;;;;;7.55;2.13;;;;;;;;;;5056114;28;20189;-67
2022/06/12 01:51:33;;;;;;;8.88;2.40;;;;;;;;;;5055070;28;20165;-67
2022/06/12 01:54:03;;;;;;;5.65;2.40;;;;;;;;;;5055985;28;20161;-66
2022/06/12 01:56:29;;;;;;;6.78;2.45;;;;;;;;;;5056103;28;20176;-66
2022/06/12 01:58:56;;;;;;;8.63;2.47;;;;;;;;;;5056104;28;20165;-66
2022/06/12 02:01:22;;;;;;;9.43;2.38;;;;;;;;;;5055656;28;20635;-66
2022/06/12 02:03:51;;;;;;;9.80;2.47;;;;;;;;;;5054978;28;20619;-66
2022/06/12 02:06:40;;;;;;;6.50;2.30;;;;;;;;;;5055867;28;20180;-66
2022/06/12 02:09:39;;;;;;;7.05;2.35;;;;;;;;;;5052563;28;20496;-66
2022/06/12 02:14:57;;;;;;;9.65;2.63;;;;;;;;;;5033873;28;20180;-66
2022/06/12 02:17:26;;;;;;;8.65;2.83;;;;;;;;;;5033998;28;20176;-67
2022/06/12 02:19:53;;;;;;;6.50;2.30;;;;;;;;;;5034033;28;20178;-67
2022/06/12 02:22:23;;;;;;;4.00;1.95;;;;;;;;;;5033603;28;20223;-66
2022/06/12 02:24:52;;;;;;;5.28;2.40;;;;;;;;;;5033634;28;20188;-66
2022/06/12 02:27:23;;;;;;;6.63;2.30;;;;;;;;;;5033493;28;20228;-67
2022/06/12 02:29:53;;;;;;;6.95;2.33;;;;;;;;;;5033862;28;20166;-66
2022/06/12 02:32:22;;;;;;;6.78;2.67;;;;;;;;;;5033292;28;20177;-67
2022/06/12 02:34:51;;;;;;;7.45;2.17;;;;;;;;;;5033321;28;20178;-66
2022/06/12 02:37:19;;;;;;;5.85;2.25;;;;;;;;;;5033241;28;20230;-67
2022/06/12 02:39:49;;;;;;;6.25;2.30;;;;;;;;;;5033399;28;20176;-66
2022/06/12 02:42:17;;;;;;;11.48;2.42;;;;;;;;;;5033154;28;20181;-66
2022/06/12 02:44:49;;;;;;;7.57;2.38;;;;;;;;;;5033212;28;20181;-66
2022/06/12 02:47:21;;;;;;;8.07;2.28;;;;;;;;;;5040125;28;20671;-66
2022/06/12 02:49:48;;;;;;;7.15;2.47;;;;;;;;;;5054866;28;20161;-66
2022/06/12 02:52:20;;;;;;;5.38;2.40;;;;;;;;;;5055222;28;20165;-67
2022/06/12 02:54:50;;;;;;;7.32;2.40;;;;;;;;;;5054709;28;20180;-67
2022/06/12 02:57:22;;;;;;;6.28;2.10;;;;;;;;;;5054441;28;20194;-67
2022/06/12 02:59:55;;;;;;;8.65;2.53;;;;;;;;;;5054649;28;20157;-67
2022/06/12 03:02:27;;;;;;;6.47;1.92;;;;;;;;;;5054409;28;20632;-67
2022/06/12 03:04:59;;;;;;;9.57;2.47;;;;;;;;;;5054828;28;20179;-67
2022/06/12 03:07:25;;;;;;;7.65;2.47;;;;;;;;;;5054515;28;20196;-67
2022/06/12 03:09:51;;;;;;;4.82;2.25;;;;;;;;;;5054392;28;20242;-67
2022/06/12 03:12:18;;;;;;;4.35;2.00;;;;;;;;;;5054604;28;20171;-67
2022/06/12 03:14:44;;;;;;;6.93;2.38;;;;;;;;;;5054672;28;20169;-67
2022/06/12 03:17:10;;;;;;;10.38;2.65;;;;;;;;;;5054356;28;20659;-67
2022/06/12 03:19:42;;;;;;;6.95;2.13;;;;;;;;;;5054351;28;20561;-67
2022/06/12 03:22:20;;;;;;;5.47;2.92;;;;;;;;;;5054396;28;20228;-66
2022/06/12 03:24:53;;;;;;;5.85;1.92;;;;;;;;;;5054258;28;20581;-67
2022/06/12 03:27:25;;;;;;;3.97;1.92;;;;;;;;;;5053935;28;20667;-67
2022/06/12 03:29:51;;;;;;;7.55;1.98;;;;;;;;;;5053969;28;20176;-67
2022/06/12 03:32:29;;;;;;;5.25;2.30;;;;;;;;;;5053878;28;20161;-67
2022/06/12 03:35:09;;;;;;;7.38;2.28;;;;;;;;;;5053919;28;20539;-67
2022/06/12 03:37:38;;;;;;;8.15;2.30;;;;;;;;;;5053832;28;20600;-67
2022/06/12 03:40:23;;;;;;;8.38;2.47;;;;;;;;;;5053858;28;20192;-67
2022/06/12 03:42:49;;;;;;;8.25;2.40;;;;;;;;;;5054028;28;20149;-67
2022/06/12 03:45:17;;;;;;;6.03;2.17;;;;;;;;;;5053758;28;20184;-67
2022/06/12 03:47:51;;;;;;;5.78;2.15;;;;;;;;;;5053707;28;20250;-67
2022/06/12 03:50:39;;;;;;;6.75;2.03;;;;;;;;;;5054012;28;20236;-67
2022/06/12 03:53:10;;;;;;;5.95;2.20;;;;;;;;;;5053691;28;20188;-67
2022/06/12 03:58:30;;;;;;;7.72;2.15;;;;;;;;;;5053782;28;20625;-67
2022/06/12 04:00:57;;;;;;;5.28;2.40;;;;;;;;;;5053547;28;20187;-67
2022/06/12 04:03:28;;;;;;;5.57;1.95;;;;;;;;;;5053399;28;20743;-67
2022/06/12 04:05:57;;;;;;;5.57;2.60;;;;;;;;;;5053470;28;20175;-67
2022/06/12 04:08:25;;;;;;;5.88;2.05;;;;;;;;;;5053544;28;20246;-67
2022/06/12 04:10:52;;;;;;;7.82;1.90;;;;;;;;;;5053381;28;20236;-67
2022/06/12 04:13:18;;;;;;;7.28;2.25;;;;;;;;;;5053897;28;20252;-66
2022/06/12 04:15:53;;;;;;;6.50;2.20;;;;;;;;;;5053136;28;20168;-67
2022/06/12 04:18:19;;;;;;;11.52;3.05;;;;;;;;;;5053201;28;20172;-67
2022/06/12 04:20:50;;;;;;;7.47;2.10;;;;;;;;;;5053320;28;20165;-67
2022/06/12 04:23:23;;;;;;;7.68;2.35;;;;;;;;;;5053324;28;20245;-67
2022/06/12 04:26:00;;;;;;;3.08;1.90;;;;;;;;;;5053463;28;20185;-67
2022/06/12 04:28:28;;;;;;;6.80;1.90;;;;;;;;;;5053599;28;20732;-67
2022/06/12 04:30:54;;;;;;;7.38;2.05;;;;;;;;;;5053282;28;20222;-67
2022/06/12 04:33:37;;;;;;;7.55;2.40;;;;;;;;;;5053201;28;20165;-67
2022/06/12 04:36:04;;;;;;;6.15;2.42;;;;;;;;;;5053519;28;20145;-67
2022/06/12 04:38:31;;;;;;;6.50;2.63;;;;;;;;;;5053151;28;20198;-67
2022/06/12 04:40:57;;;;;;;5.93;2.45;;;;;;;;;;5053507;28;20196;-67
2022/06/12 04:43:23;;;;;;;10.15;2.58;;;;;;;;;;5053086;28;20196;-67
2022/06/12 04:45:49;;;;;;;5.70;1.98;;;;;;;;;;5053146;28;20168;-67
2022/06/12 04:48:21;;;;;;;9.13;2.03;;;;;;;;;;5052869;28;20488;-67
2022/06/12 04:50:47;;;;;;;8.93;2.28;;;;;;;;;;5053034;28;20152;-67
2022/06/12 04:53:13;;;;;;;8.02;2.40;;;;;;;;;;5053233;28;20168;-67
2022/06/12 04:55:39;;;;;;;7.38;2.30;;;;;;;;;;5053038;28;20596;-67
2022/06/12 04:58:06;;;;;;;5.88;2.53;;;;;;;;;;5053194;28;20388;-67
2022/06/12 05:00:33;;;;;;;8.85;2.30;;;;;;;;;;5053007;28;20675;-67
2022/06/12 05:02:59;;;;;;;6.97;2.08;;;;;;;;;;5053176;28;20176;-67
2022/06/12 05:05:25;;;;;;;6.65;2.42;;;;;;;;;;5052954;28;20501;-67
2022/06/12 05:07:52;;;;;;;7.05;2.40;;;;;;;;;;5052890;28;20189;-67
2022/06/12 05:10:18;;;;;;;5.93;2.13;;;;;;;;;;5053189;28;20218;-67
2022/06/12 05:12:44;;;;;;;3.88;1.85;;;;;;;;;;5053188;28;20156;-67
2022/06/12 05:15:12;;;;;;;5.57;1.95;;;;;;;;;;5052805;28;20243;-67
2022/06/12 05:17:38;;;;;;;5.28;1.40;;;;;;;;;;5053117;28;20173;-67
2022/06/12 05:20:04;;;;;;;6.07;2.00;;;;;;;;;;5052952;28;20238;-67
2022/06/12 05:22:30;;;;;;;4.72;1.30;;;;;;;;;;5052811;28;20164;-67
2022/06/12 05:24:56;;;;;;;5.18;1.33;;;;;;;;;;5052694;28;20642;-67
2022/06/12 05:27:23;;;;;;;4.50;2.00;;;;;;;;;;5054806;28;20490;-67
2022/06/12 05:29:50;;;;;;;5.38;1.38;;;;;;;;;;5056350;28;20241;-67
2022/06/12 05:32:17;;;;;;;3.67;1.40;;;;;;;;;;5056725;28;20196;-67
2022/06/12 05:34:43;;;;;;;6.28;1.70;;;;;;;;;;5056251;28;20166;-67
2022/06/12 05:37:10;;;;;;;4.53;2.10;;;;;;;;;;5056409;28;20251;-67
2022/06/12 05:39:36;;;;;;;5.22;1.80;;;;;;;;;;5056356;28;20234;-67
2022/06/12 05:42:02;;;;;;;4.75;1.33;;;;;;;;;;5056024;28;20278;-67
2022/06/12 05:44:28;;;;;;;4.50;1.33;;;;;;;;;;5056080;28;20182;-67
2022/06/12 05:46:54;;;;;;;4.10;1.40;;;;;;;;;;5055818;28;20180;-67
2022/06/12 05:49:20;;;;;;;7.25;2.10;;;;;;;;;;5055911;28;20164;-67
2022/06/12 05:51:45;;;;;;;4.63;1.45;;;;;;;;;;5055916;28;20638;-67
2022/06/12 05:54:12;;;;;;;3.72;1.42;;;;;;;;;;5055849;28;20196;-67
2022/06/12 05:56:38;;;;;;;4.53;1.25;;;;;;;;;;5056213;28;20168;-66
2022/06/12 05:59:04;;;;;;;6.95;1.55;;;;;;;;;;5056032;28;20580;-66
2022/06/12 06:01:31;;;;;;;5.93;1.60;;;;;;;;;;5055851;28;20160;-66
2022/06/12 06:03:57;;;;;;;4.65;1.40;;;;;;;;;;5055606;28;20165;-66
2022/06/12 06:06:25;;;;;;;3.40;1.45;;;;;;;;;;5055644;28;20164;-66
2022/06/12 06:08:51;;;;;;;5.88;1.45;;;;;;;;;;5055401;28;20192;-66
2022/06/12 06:11:17;;;;;;;2.75;1.13;;;;;;;;;;5055525;28;20192;-66
2022/06/12 06:13:43;;;;;;;4.20;1.55;;;;;;;;;;5055467;28;20196;-67
2022/06/12 06:16:09;;;;;;;2.97;1.10;;;;;;;;;;5055479;28;20207;-66
2022/06/12 06:18:35;;;;;;;4.15;1.13;;;;;;;;;;5055489;28;20168;-67
2022/06/12 06:21:01;;;;;;;3.50;1.40;;;;;;;;;;5055449;28;20608;-67
2022/06/12 06:23:27;;;;;;;4.90;1.40;;;;;;;;;;5055421;28;20226;-67
2022/06/12 06:25:53;;;;;;;2.88;1.17;;;;;;;;;;5055335;28;20168;-66
2022/06/12 06:28:20;;;;;;;1.45;1.00;;;;;;;;;;5055516;28;20188;-66
2022/06/12 06:30:46;;;;;;;4.70;1.40;;;;;;;;;;5055474;28;20188;-67
2022/06/12 06:33:12;;;;;;;5.13;1.40;;;;;;;;;;5055196;28;20259;-66
2022/06/12 06:35:38;;;;;;;4.45;1.10;;;;;;;;;;5055126;28;20164;-66
2022/06/12 06:38:05;;;;;;;2.95;1.30;;;;;;;;;;5054736;28;20229;-66
2022/06/12 06:40:31;;;;;;;3.47;1.20;;;;;;;;;;5055202;28;20173;-67
2022/06/12 06:42:57;;;;;;;3.03;1.10;;;;;;;;;;5055008;28;20165;-67
2022/06/12 06:48:08;;;;;;;5.38;1.33;;;;;;;;;;5054722;28;20734;-66
2022/06/12 06:50:35;;;;;;;4.43;1.38;;;;;;;;;;5054856;28;20172;-66
2022/06/12 06:53:01;;;;;;;4.07;1.20;;;;;;;;;;5055643;28;20175;-66
2022/06/12 06:55:29;;;;;;;3.80;1.40;;;;;;;;;;5054697;28;20169;-66
2022/06/12 06:57:57;;;;;;;3.88;1.25;;;;;;;;;;5055067;28;20255;-66
2022/06/12 07:00:24;;;;;;;2.03;1.15;;;;;;;;;;5054846;28;20187;-66
2022/06/12 07:02:51;;;;;;;3.97;1.55;;;;;;;;;;5054901;28;20168;-67
2022/06/12 07:05:17;;;;;;;8.15;1.75;;;;;;;;;;5054509;28;20263;-67
2022/06/12 07:07:43;;;;;;;3.92;1.50;;;;;;;;;;5054441;28;20592;-66
2022/06/12 07:10:11;;;;;;;4.15;1.25;;;;;;;;;;5054733;28;20529;-68
2022/06/12 07:12:38;;;;;;;4.88;1.65;;;;;;;;;;5054418;28;20656;-68
2022/06/12 07:15:04;;;;;;;3.97;1.45;;;;;;;;;;5054260;28;20169;-68
2022/06/12 07:17:30;;;;;;;4.88;1.85;;;;;;;;;;5054315;28;20226;-68
2022/06/12 07:19:56;;;;;;;4.80;1.73;;;;;;;;;;5054383;28;20165;-67
2022/06/12 07:22:23;;;;;;;2.90;1.58;;;;;;;;;;5054499;28;20171;-68
2022/06/12 07:24:49;;;;;;;3.88;1.60;;;;;;;;;;5054366;28;20263;-68
2022/06/12 07:27:15;;;;;;;7.38;1.83;;;;;;;;;;5054106;28;20192;-68
2022/06/12 07:29:41;;;;;;;5.28;1.65;;;;;;;;;;5053993;28;20619;-68
2022/06/12 07:32:08;;;;;;;4.32;1.90;;;;;;;;;;5053974;28;20160;-68
2022/06/12 07:34:34;;;;;;;4.22;1.55;;;;;;;;;;5053917;28;20525;-68
2022/06/12 07:37:00;;;;;;;4.75;1.73;;;;;;;;;;5053873;28;20161;-68
2022/06/12 07:39:28;;;;;;;4.75;1.50;;;;;;;;;;5054216;28;20168;-68
2022/06/12 07:41:54;;;;;;;5.07;1.75;;;;;;;;;;5053879;28;20239;-68
2022/06/12 07:44:21;;;;;;;6.25;1.77;;;;;;;;;;5054210;28;20170;-68
2022/06/12 07:46:49;;;;;;;6.22;1.60;;;;;;;;;;5053604;28;20184;-68
2022/06/12 07:49:18;;;;;;;7.88;1.75;;;;;;;;;;5053378;28;20249;-68
2022/06/12 07:51:44;;;;;;;6.90;1.77;;;;;;;;;;5053643;28;20687;-68
2022/06/12 07:54:10;;;;;;;4.75;1.80;;;;;;;;;;5053763;28;20178;-68
2022/06/12 07:56:36;;;;;;;4.35;1.58;;;;;;;;;;5053519;28;20251;-68
2022/06/12 07:59:03;;;;;;;7.90;1.70;;;;;;;;;;5053617;28;20164;-68
2022/06/12 08:01:29;;;;;;;7.07;1.50;;;;;;;;;;5053477;28;20180;-68
2022/06/12 08:03:56;;;;;;;4.15;1.83;;;;;;;;;;5053844;28;20298;-68
2022/06/12 08:06:23;;;;;;;5.93;1.77;;;;;;;;;;5053468;28;20176;-68
2022/06/12 08:08:49;;;;;;;5.72;1.58;;;;;;;;;;5053374;28;20279;-68
2022/06/12 08:11:16;;;;;;;5.63;1.88;;;;;;;;;;5053916;28;20198;-68
2022/06/12 08:13:42;;;;;;;6.03;1.83;;;;;;;;;;5053439;28;20493;-68
2022/06/12 08:16:08;;;;;;;6.13;1.90;;;;;;;;;;5053210;28;20260;-68
2022/06/12 08:18:34;;;;;;;5.95;1.80;;;;;;;;;;5053363;28;20180;-67
2022/06/12 08:21:09;;;;;;;4.63;1.52;;;;;;;;;;5053501;28;20259;-68
2022/06/12 08:23:40;;;;;;;5.25;1.92;;;;;;;;;;5053488;28;20235;-68
2022/06/12 08:26:08;;;;;;;3.60;1.55;;;;;;;;;;5053144;28;20148;-68
2022/06/12 08:28:42;;;;;;;7.93;1.92;;;;;;;;;;5053267;28;20214;-68
2022/06/12 08:31:10;;;;;;;5.28;1.70;;;;;;;;;;5053458;28;20588;-68
2022/06/12 08:33:37;;;;;;;5.55;2.13;;;;;;;;;;5053615;28;20164;-68
2022/06/12 08:36:04;;;;;;;7.07;2.03;;;;;;;;;;5053184;28;20160;-68
2022/06/12 08:38:30;;;;;;;4.63;1.60;;;;;;;;;;5053227;28;20171;-68
2022/06/12 08:41:00;;;;;;;7.97;1.73;;;;;;;;;;5053286;28;20490;-68
2022/06/12 08:43:45;;;;;;;4.65;1.75;;;;;;;;;;5053073;28;20232;-68
2022/06/12 08:46:16;;;;;;;4.70;1.60;;;;;;;;;;5052788;28;20172;-68
2022/06/12 08:48:58;;;;;;;5.40;1.77;;;;;;;;;;5053000;28;20226;-68
2022/06/12 08:51:43;;;;;;;5.70;1.60;;;;;;;;;;5052968;28;20226;-68
2022/06/12 08:54:13;;;;;;;4.88;1.67;;;;;;;;;;5052998;28;20159;-67
2022/06/12 08:56:43;;;;;;;9.70;2.40;;;;;;;;;;5053101;28;20149;-68
2022/06/12 08:59:26;;;;;;;5.00;1.77;;;;;;;;;;5053040;28;20157;-67
2022/06/12 09:01:52;;;;;;;6.30;2.55;;;;;;;;;;5056073;28;20152;-68
2022/06/12 09:04:19;;;;;;;3.67;1.48;;;;;;;;;;5056837;28;20175;-68
2022/06/12 09:06:50;;;;;;;3.75;1.80;;;;;;;;;;5056760;28;20187;-68
2022/06/12 09:09:32;;;;;;;6.20;2.20;;;;;;;;;;5056763;28;20660;-68
2022/06/12 09:12:19;;;;;;;8.10;2.63;;;;;;;;;;5056604;28;20168;-68
2022/06/12 09:15:03;;;;;;;5.70;1.58;;;;;;;;;;5056693;28;20258;-68
2022/06/12 09:17:56;;;;;;;7.88;2.00;;;;;;;;;;5056887;28;20255;-68
2022/06/12 09:20:33;;;;;;;6.82;1.90;;;;;;;;;;5055387;28;20228;-68
2022/06/12 09:23:06;;;;;;;4.03;1.60;;;;;;;;;;5056549;28;20230;-68
2022/06/12 09:25:37;;;;;;;2.92;1.30;;;;;;;;;;5056609;28;20510;-68
2022/06/12 09:28:03;;;;;;;4.13;1.52;;;;;;;;;;5056398;28;20188;-68
2022/06/12 09:30:34;;;;;;;3.95;1.52;;;;;;;;;;5056422;28;20171;-68
2022/06/12 09:33:16;;;;;;;5.43;1.70;;;;;;;;;;5056191;28;20164;-68
2022/06/12 09:36:05;;;;;;;6.97;1.33;;;;;;;;;;5056375;28;20152;-68
2022/06/12 09:38:50;;;;;;;4.60;1.60;;;;;;;;;;5056291;28;20177;-68
2022/06/12 09:41:28;;;;;;;5.25;1.67;;;;;;;;;;5056188;28;20338;-68
2022/06/12 09:44:12;;;;;;;6.13;2.00;;;;;;;;;;5056566;28;20164;-68
2022/06/12 09:46:43;;;;;;;4.25;1.75;;;;;;;;;;5056340;28;20177;-68
2022/06/12 09:49:12;;;;;;;5.13;1.48;;;;;;;;;;5056079;28;20414;-68
2022/06/12 09:51:45;;;;;;;3.88;1.30;;;;;;;;;;5056178;28;20175;-68
2022/06/12 09:54:21;;;;;;;3.67;1.40;;;;;;;;;;5056239;28;20168;-67
2022/06/12 09:56:47;;;;;;;2.50;1.13;;;;;;;;;;5057236;28;20159;-67
2022/06/12 09:59:26;;;;;;;5.15;1.58;;;;;;;;;;5056837;28;20496;-66
2022/06/12 10:01:56;;;;;;;3.97;1.50;;;;;;;;;;5056419;28;20184;-68
2022/06/12 10:04:31;;;;;;;4.95;1.67;;;;;;;;;;5056807;28;20175;-68
2022/06/12 10:07:06;;;;;;;4.47;1.55;;;;;;;;;;5056248;28;20157;-68
2022/06/12 10:09:35;;;;;;;4.68;1.45;;;;;;;;;;5056433;28;20152;-68
2022/06/12 10:12:01;;;;;;;4.20;1.38;;;;;;;;;;5056187;28;20160;-68
2022/06/12 10:14:27;;;;;;;4.70;1.60;;;;;;;;;;5056633;28;20543;-68
2022/06/12 10:16:55;;;;;;;2.42;1.13;;;;;;;;;;5055650;28;20251;-66
2022/06/12 10:19:29;;;;;;;4.07;1.50;;;;;;;;;;5055813;28;20183;-68
2022/06/12 10:21:56;;;;;;;2.83;1.33;;;;;;;;;;5055694;28;20149;-68
2022/06/12 10:24:23;;;;;;;3.45;1.45;;;;;;;;;;5056288;28;20167;-66
2022/06/12 10:26:54;;;;;;;6.18;1.77;;;;;;;;;;5055519;28;20207;-68
2022/06/12 10:29:24;;;;;;;3.17;1.50;;;;;;;;;;5055133;28;20278;-68
2022/06/12 10:32:01;;;;;;;4.50;1.58;;;;;;;;;;5055151;28;20569;-68
2022/06/12 10:34:29;;;;;;;4.28;1.23;;;;;;;;;;5055394;28;20179;-68
2022/06/12 10:36:55;;;;;;;3.75;1.50;;;;;;;;;;5054912;28;20568;-68
2022/06/12 10:39:23;;;;;;;4.82;1.70;;;;;;;;;;5055489;28;20200;-69
2022/06/12 10:41:51;;;;;;;4.38;1.67;;;;;;;;;;5055174;28;20172;-68
2022/06/12 10:44:27;;;;;;;5.22;1.95;;;;;;;;;;5054957;28;20623;-68
2022/06/12 10:46:53;;;;;;;3.30;1.40;;;;;;;;;;5055346;28;20571;-68
2022/06/12 10:49:23;;;;;;;5.00;1.60;;;;;;;;;;5055245;28;20188;-68
2022/06/12 10:51:49;;;;;;;6.05;1.60;;;;;;;;;;5055142;28;20521;-68
2022/06/12 10:54:23;;;;;;;4.65;1.42;;;;;;;;;;5054847;28;20604;-67
2022/06/12 10:57:04;;;;;;;3.47;1.30;;;;;;;;;;5054870;28;20160;-67
2022/06/12 10:59:33;;;;;;;4.90;1.38;;;;;;;;;;5054867;28;20225;-67
2022/06/12 11:02:18;;;;;;;5.50;1.60;;;;;;;;;;5054594;28;20604;-68
2022/06/12 11:04:50;;;;;;;4.35;1.48;;;;;;;;;;5054774;28;20238;-68
2022/06/12 11:07:23;;;;;;;2.17;1.35;;;;;;;;;;5054638;28;20161;-68
2022/06/12 11:10:01;;;;;;;3.00;1.20;;;;;;;;;;5055148;28;20156;-68
2022/06/12 11:12:33;;;;;;;3.47;1.58;;;;;;;;;;5054346;28;20202;-67
2022/06/12 11:14:59;;;;;;;2.20;0.95;;;;;;;;;;5054592;28;20161;-67
2022/06/12 11:17:37;;;;;;;1.95;1.02;;;;;;;;;;5054229;28;20164;-67
2022/06/12 11:20:13;;;;;;;3.75;1.10;;;;;;;;;;5054499;28;20172;-67
2022/06/12 11:22:57;;;;;;;1.98;1.05;;;;;;;;;;5054195;28;20168;-67
2022/06/12 11:25:42;;;;;;;5.13;1.10;;;;;;;;;;5053143;28;20196;-67
2022/06/12 11:28:14;;;;;;;1.85;0.98;;;;;;;;;;5053915;28;20192;-67
2022/06/12 11:31:12;;;;;;;3.08;1.00;;;;;;;;;;5054087;28;20351;-67
2022/06/12 11:33:50;;;;;;;3.70;1.20;;;;;;;;;;5053039;28;20149;-67
2022/06/12 11:36:21;;;;;;;2.38;1.00;;;;;;;;;;5054255;28;20231;-67
2022/06/12 11:38:53;;;;;;;2.22;1.05;;;;;;;;;;5053842;28;20588;-67
2022/06/12 11:41:19;;;;;;;3.58;1.02;;;;;;;;;;5053879;28;20251;-68
2022/06/12 11:43:54;;;;;;;2.08;1.10;;;;;;;;;;5053713;28;20260;-67
2022/06/12 11:46:39;;;;;;;3.72;1.05;;;;;;;;;;5053706;28;20160;-67
2022/06/12 11:49:17;;;;;;;5.55;1.45;;;;;;;;;;5053907;28;20210;-68
2022/06/12 11:51:46;;;;;;;3.70;1.00;;;;;;;;;;5054002;28;20509;-69
2022/06/12 11:54:25;;;;;;;2.28;0.95;;;;;;;;;;5053861;28;20164;-69
2022/06/12 11:57:10;;;;;;;8.57;1.27;;;;;;;;;;5053907;28;20183;-69
2022/06/12 11:59:54;;;;;;;3.47;1.20;;;;;;;;;;5053632;28;20240;-68
2022/06/12 12:02:36;;;;;;;3.30;1.17;;;;;;;;;;5053894;28;20218;-68
2022/06/12 12:05:14;;;;;;;2.95;1.23;;;;;;;;;;5053644;28;20720;-68
2022/06/12 12:07:45;;;;;;;2.92;1.00;;;;;;;;;;5053377;28;20184;-68
2022/06/12 12:10:14;;;;;;;2.50;1.30;;;;;;;;;;5053578;28;20564;-68
2022/06/12 12:12:46;;;;;;;3.53;1.08;;;;;;;;;;5053559;28;20168;-69
2022/06/12 12:15:17;;;;;;;4.57;1.40;;;;;;;;;;5053667;28;20184;-69
2022/06/12 12:17:44;;;;;;;3.10;1.20;;;;;;;;;;5053387;28;20152;-69
2022/06/12 12:20:16;;;;;;;1.73;0.95;;;;;;;;;;5053478;28;20172;-68
2022/06/12 12:22:48;;;;;;;4.55;1.33;;;;;;;;;;5053403;28;20445;-68
2022/06/12 12:25:17;;;;;;;5.10;1.15;;;;;;;;;;5053378;28;20165;-68
2022/06/12 12:27:45;;;;;;;3.63;1.10;;;;;;;;;;5053245;28;20199;-68
2022/06/12 12:30:31;;;;;;;2.67;1.20;;;;;;;;;;5053452;28;20156;-68
2022/06/12 12:32:59;;;;;;;1.38;1.00;;;;;;;;;;5053205;28;20199;-68
2022/06/12 12:41:13;;;;;;;2.17;1.40;;;;;;;;;;5057573;28;20298;-69
2022/06/12 12:43:48;;;;;;;1.90;0.90;;;;;;;;;;5057219;28;20168;-69
2022/06/12 12:46:15;;;;;;;2.83;0.90;;;;;;;;;;5057104;28;20168;-69
2022/06/12 12:48:43;;;;;;;3.08;1.00;;;;;;;;;;5057079;28;20218;-69
2022/06/12 12:51:10;;;;;;;2.72;1.05;;;;;;;;;;5057306;28;20179;-69
2022/06/12 12:53:38;;;;;;;2.75;1.13;;;;;;;;;;5057012;28;20171;-69
2022/06/12 12:56:04;;;;;;;3.15;1.00;;;;;;;;;;5057204;28;20172;-69
2022/06/12 12:58:31;;;;;;;2.65;1.00;;;;;;;;;;5056894;28;20247;-69
2022/06/12 13:01:17;;;;;;;2.35;1.15;;;;;;;;;;5056902;28;20489;-69
2022/06/12 13:03:46;;;;;;;2.10;0.82;;;;;;;;;;5056881;28;20639;-69
2022/06/12 13:06:20;;;;;;;2.88;1.10;;;;;;;;;;5056886;28;20175;-69
2022/06/12 13:09:04;;;;;;;2.45;1.17;;;;;;;;;;5056905;28;20184;-69
2022/06/12 13:11:30;;;;;;;2.58;1.20;;;;;;;;;;5056724;28;20476;-69
2022/06/12 13:14:08;;;;;;;2.63;1.13;;;;;;;;;;5056614;28;20179;-69
2022/06/12 13:16:37;;;;;;;2.20;0.93;;;;;;;;;;5057053;28;20513;-68
2022/06/12 13:19:15;;;;;;;2.33;1.27;;;;;;;;;;5056530;28;20165;-69
2022/06/12 13:21:54;;;;;;;2.58;1.10;;;;;;;;;;5056843;28;20180;-69
2022/06/12 13:24:27;;;;;;;3.15;1.40;;;;;;;;;;5056749;28;20184;-69
2022/06/12 13:26:54;;;;;;;2.78;1.30;;;;;;;;;;5056482;28;20164;-69
2022/06/12 13:29:21;;;;;;;4.82;1.40;;;;;;;;;;5056590;28;20188;-69
2022/06/12 13:31:56;;;;;;;2.80;1.15;;;;;;;;;;5056317;28;20160;-69
2022/06/12 13:34:23;;;;;;;3.45;0.98;;;;;;;;;;5056299;28;20164;-69
2022/06/12 13:36:49;;;;;;;3.40;1.40;;;;;;;;;;5056215;28;20651;-69
2022/06/12 13:39:37;;;;;;;3.00;1.20;;;;;;;;;;5056595;28;20172;-69
2022/06/12 13:42:05;;;;;;;2.67;1.00;;;;;;;;;;5056609;28;20165;-69
2022/06/12 13:44:33;;;;;;;2.97;1.10;;;;;;;;;;5056138;28;20178;-69
2022/06/12 13:47:12;;;;;;;4.20;1.10;;;;;;;;;;5054815;28;20188;-69
2022/06/12 13:49:44;;;;;;;2.40;1.08;;;;;;;;;;5055916;28;20149;-69
2022/06/12 13:52:16;;;;;;;2.40;1.00;;;;;;;;;;5055954;28;20195;-69
2022/06/12 13:54:43;;;;;;;3.75;1.30;;;;;;;;;;5055884;28;20260;-69
2022/06/12 13:57:14;;;;;;;3.15;1.20;;;;;;;;;;5055995;28;20165;-69
2022/06/12 13:59:45;;;;;;;4.15;1.38;;;;;;;;;;5056097;28;20211;-69
2022/06/12 14:02:13;;;;;;;5.10;1.67;;;;;;;;;;5055847;28;20605;-69
2022/06/12 14:04:48;;;;;;;5.00;2.45;;;;;;;;;;5055638;28;20168;-69
2022/06/12 14:07:14;;;;;;;5.00;1.90;;;;;;;;;;5055566;28;20235;-69
2022/06/12 14:09:41;;;;;;;3.42;1.27;;;;;;;;;;5055587;28;20169;-69
2022/06/12 14:12:07;;;;;;;6.45;1.95;;;;;;;;;;5055575;28;20497;-69
2022/06/12 14:14:35;;;;;;;3.92;1.30;;;;;;;;;;5055705;28;20515;-69
2022/06/12 14:17:02;;;;;;;3.97;1.20;;;;;;;;;;5055385;28;20222;-69
2022/06/12 14:19:29;;;;;;;4.05;1.30;;;;;;;;;;5055383;28;20164;-69
2022/06/12 14:22:13;;;;;;;2.60;1.08;;;;;;;;;;5056006;28;20165;-69
2022/06/12 14:24:40;;;;;;;6.43;1.45;;;;;;;;;;5055235;28;20168;-69
2022/06/12 14:27:33;;;;;;;2.92;1.20;;;;;;;;;;5055262;28;20616;-69
2022/06/12 14:29:59;;;;;;;4.20;1.25;;;;;;;;;;5055257;28;20156;-69
2022/06/12 14:32:27;;;;;;;4.95;1.30;;;;;;;;;;5055037;28;20179;-69
2022/06/12 14:35:05;;;;;;;4.03;1.40;;;;;;;;;;5055082;28;20153;-69
2022/06/12 14:37:30;;;;;;;3.45;1.30;;;;;;;;;;5055204;28;20172;-69
2022/06/12 14:39:57;;;;;;;3.40;1.10;;;;;;;;;;5054924;28;20176;-69
2022/06/12 14:42:25;;;;;;;2.42;1.30;;;;;;;;;;5054980;28;20176;-69
2022/06/12 14:44:51;;;;;;;3.03;1.30;;;;;;;;;;5055144;28;20192;-69
2022/06/12 14:47:17;;;;;;;3.50;1.50;;;;;;;;;;5054683;28;20650;-69
2022/06/12 14:49:43;;;;;;;2.45;1.30;;;;;;;;;;5054703;28;20247;-69
2022/06/12 14:52:10;;;;;;;3.58;1.50;;;;;;;;;;5054773;28;20303;-68
2022/06/12 14:54:36;;;;;;;4.28;1.40;;;;;;;;;;5055064;28;20218;-68
2022/06/12 14:57:02;;;;;;;4.07;1.42;;;;;;;;;;5054745;28;20164;-68
2022/06/12 14:59:29;;;;;;;3.80;1.35;;;;;;;;;;5054198;28;20251;-68
2022/06/12 15:01:56;;;;;;;4.00;1.70;;;;;;;;;;5054627;28;20168;-68
2022/06/12 15:04:23;;;;;;;4.35;1.40;;;;;;;;;;5054689;28;20218;-69
2022/06/12 15:06:49;;;;;;;2.58;1.45;;;;;;;;;;5054463;28;20176;-68
2022/06/12 15:09:15;;;;;;;4.55;1.52;;;;;;;;;;5054714;28;20187;-68
2022/06/12 15:11:42;;;;;;;2.85;1.35;;;;;;;;;;5054533;28;20584;-68
2022/06/12 15:14:12;;;;;;;4.38;1.35;;;;;;;;;;5054451;28;20179;-68
2022/06/12 15:16:38;;;;;;;4.43;1.30;;;;;;;;;;5054556;28;20176;-68
2022/06/12 15:19:04;;;;;;;4.45;1.67;;;;;;;;;;5054498;28;20172;-68